SFR382 FAOR-FAEL
Flight info
| Callsign | SFR382 |
|---|---|
| Flight time | 1h 10m |
| Altitude | 36000 |
| Route | APDAK1B APDAK DCT GEROX UQ7 AXOXI DCT ELV |
| Aircraft | B738/M-SDE2E3FGHIRWXY/LB1 |
Departure
| Time | 2026-05-05 12:44 |
|---|---|
| Airport | O.R. Tambo International Airport (FAOR) |
Arrival
| Time | 2026-05-05 13:54 |
|---|---|
| Airport | King Phalo Airport (FAEL) |
| Time | Latitude | Longitude | Altitude | Speed | Heading |
|---|---|---|---|---|---|
| 2026-05-05 12:19 | -26.13657 | 28.23254 | 5534 ft | 0 kts | 276° |
| 2026-05-05 12:33 | -26.13658 | 28.23267 | 5531 ft | 4 kts | 274° |
| 2026-05-05 12:33 | -26.13659 | 28.23297 | 5535 ft | 4 kts | 265° |
| 2026-05-05 12:33 | -26.13654 | 28.23326 | 5539 ft | 4 kts | 246° |
| 2026-05-05 12:33 | -26.13640 | 28.23347 | 5534 ft | 4 kts | 194° |
| 2026-05-05 12:34 | -26.13630 | 28.23349 | 5539 ft | 1 kts | 184° |
| 2026-05-05 12:38 | -26.13640 | 28.23348 | 5534 ft | 4 kts | 184° |
| 2026-05-05 12:38 | -26.13685 | 28.23345 | 5532 ft | 8 kts | 184° |
| 2026-05-05 12:38 | -26.13738 | 28.23338 | 5533 ft | 8 kts | 186° |
| 2026-05-05 12:39 | -26.13789 | 28.23332 | 5538 ft | 7 kts | 187° |
| 2026-05-05 12:39 | -26.13838 | 28.23322 | 5536 ft | 7 kts | 192° |
| 2026-05-05 12:39 | -26.13885 | 28.23308 | 5535 ft | 7 kts | 195° |
| 2026-05-05 12:39 | -26.13930 | 28.23293 | 5536 ft | 7 kts | 197° |
| 2026-05-05 12:40 | -26.13975 | 28.23279 | 5541 ft | 7 kts | 195° |
| 2026-05-05 12:40 | -26.14019 | 28.23265 | 5537 ft | 7 kts | 195° |
| 2026-05-05 12:40 | -26.14063 | 28.23251 | 5538 ft | 7 kts | 197° |
| 2026-05-05 12:40 | -26.14123 | 28.23232 | 5542 ft | 10 kts | 195° |
| 2026-05-05 12:41 | -26.14202 | 28.23208 | 5544 ft | 13 kts | 194° |
| 2026-05-05 12:41 | -26.14289 | 28.23210 | 5543 ft | 13 kts | 166° |
| 2026-05-05 12:41 | -26.14373 | 28.23233 | 5543 ft | 12 kts | 166° |
| 2026-05-05 12:41 | -26.14455 | 28.23257 | 5543 ft | 12 kts | 162° |
| 2026-05-05 12:42 | -26.14494 | 28.23327 | 5544 ft | 12 kts | 77° |
| 2026-05-05 12:42 | -26.14470 | 28.23413 | 5546 ft | 11 kts | 73° |
| 2026-05-05 12:42 | -26.14436 | 28.23490 | 5546 ft | 11 kts | 43° |
| 2026-05-05 12:42 | -26.14360 | 28.23522 | 5546 ft | 17 kts | 15° |
| 2026-05-05 12:43 | -26.14035 | 28.23620 | 5544 ft | 81 kts | 16° |
| 2026-05-05 12:43 | -26.13292 | 28.23850 | 5523 ft | 139 kts | 15° |
| 2026-05-05 12:43 | -26.12195 | 28.24196 | 5548 ft | 185 kts | 15° |
| 2026-05-05 12:43 | -26.10924 | 28.24668 | 5986 ft | 200 kts | 13° |
| 2026-05-05 12:44 | -26.09582 | 28.25083 | 6660 ft | 195 kts | 9° |
| 2026-05-05 12:44 | -26.08333 | 28.25437 | 7586 ft | 181 kts | 8° |
| 2026-05-05 12:44 | -26.07080 | 28.25746 | 8170 ft | 192 kts | 7° |
| 2026-05-05 12:44 | -26.05683 | 28.26126 | 8270 ft | 221 kts | 9° |
| 2026-05-05 12:45 | -26.04198 | 28.26865 | 8421 ft | 254 kts | 34° |
| 2026-05-05 12:45 | -26.03130 | 28.28484 | 8888 ft | 270 kts | 58° |
| 2026-05-05 12:45 | -26.02760 | 28.30541 | 8813 ft | 275 kts | 91° |
| 2026-05-05 12:45 | -26.03241 | 28.32620 | 9011 ft | 285 kts | 104° |
| 2026-05-05 12:46 | -26.03893 | 28.34730 | 9032 ft | 293 kts | 106° |
| 2026-05-05 12:46 | -26.04615 | 28.36873 | 9037 ft | 296 kts | 107° |
| 2026-05-05 12:46 | -26.05340 | 28.39008 | 9023 ft | 294 kts | 107° |
| 2026-05-05 12:46 | -26.06045 | 28.41106 | 9028 ft | 291 kts | 107° |
| 2026-05-05 12:47 | -26.06739 | 28.43212 | 9033 ft | 290 kts | 106° |
| 2026-05-05 12:47 | -26.07426 | 28.45323 | 9028 ft | 292 kts | 106° |
| 2026-05-05 12:47 | -26.08133 | 28.47520 | 9197 ft | 312 kts | 107° |
| 2026-05-05 12:47 | -26.08876 | 28.49834 | 9809 ft | 323 kts | 105° |
| 2026-05-05 12:48 | -26.09642 | 28.52225 | 10407 ft | 334 kts | 105° |
| 2026-05-05 12:48 | -26.10448 | 28.54753 | 10613 ft | 359 kts | 105° |
| 2026-05-05 12:48 | -26.11354 | 28.57400 | 11083 ft | 373 kts | 114° |
| 2026-05-05 12:48 | -26.12937 | 28.59712 | 11693 ft | 381 kts | 134° |
| 2026-05-05 12:49 | -26.14860 | 28.61757 | 12393 ft | 385 kts | 135° |
| 2026-05-05 12:49 | -26.16828 | 28.63809 | 13069 ft | 389 kts | 135° |
| 2026-05-05 12:49 | -26.18811 | 28.65881 | 13782 ft | 393 kts | 136° |
| 2026-05-05 12:49 | -26.20814 | 28.67989 | 14315 ft | 400 kts | 136° |
| 2026-05-05 12:50 | -26.22846 | 28.70143 | 14904 ft | 405 kts | 136° |
| 2026-05-05 12:50 | -26.24887 | 28.72319 | 15568 ft | 407 kts | 136° |
| 2026-05-05 12:50 | -26.26921 | 28.74495 | 16216 ft | 410 kts | 136° |
| 2026-05-05 12:50 | -26.28987 | 28.76709 | 16828 ft | 415 kts | 136° |
| 2026-05-05 12:51 | -26.31075 | 28.78949 | 17459 ft | 419 kts | 136° |
| 2026-05-05 12:51 | -26.33188 | 28.81215 | 18051 ft | 423 kts | 136° |
| 2026-05-05 12:51 | -26.35325 | 28.83507 | 18591 ft | 427 kts | 136° |
| 2026-05-05 12:51 | -26.37473 | 28.85813 | 19122 ft | 431 kts | 136° |
| 2026-05-05 12:52 | -26.39640 | 28.88142 | 19667 ft | 433 kts | 136° |
| 2026-05-05 12:52 | -26.41814 | 28.90479 | 20207 ft | 437 kts | 136° |
| 2026-05-05 12:52 | -26.44018 | 28.92848 | 20787 ft | 441 kts | 136° |
| 2026-05-05 12:52 | -26.46240 | 28.95241 | 21346 ft | 444 kts | 136° |
| 2026-05-05 12:53 | -26.48461 | 28.97638 | 21854 ft | 447 kts | 136° |
| 2026-05-05 12:53 | -26.50712 | 29.00064 | 22338 ft | 451 kts | 136° |
| 2026-05-05 12:53 | -26.53171 | 29.02241 | 22755 ft | 452 kts | 154° |
| 2026-05-05 12:53 | -26.56063 | 29.03423 | 23233 ft | 446 kts | 173° |
| 2026-05-05 12:54 | -26.62100 | 29.03149 | 24121 ft | 432 kts | 199° |
| 2026-05-05 12:54 | -26.65039 | 29.02364 | 24467 ft | 436 kts | 201° |
| 2026-05-05 12:54 | -26.67995 | 29.01535 | 24807 ft | 440 kts | 201° |
| 2026-05-05 12:55 | -26.70974 | 29.00700 | 25209 ft | 442 kts | 201° |
| 2026-05-05 12:55 | -26.73933 | 28.99884 | 25598 ft | 445 kts | 200° |
| 2026-05-05 12:55 | -26.76952 | 28.99067 | 25980 ft | 448 kts | 200° |
| 2026-05-05 12:55 | -26.80002 | 28.98253 | 26344 ft | 451 kts | 200° |
| 2026-05-05 12:56 | -26.83066 | 28.97443 | 26707 ft | 454 kts | 200° |
| 2026-05-05 12:56 | -26.86159 | 28.96628 | 27056 ft | 457 kts | 200° |
| 2026-05-05 12:56 | -26.89258 | 28.95812 | 27395 ft | 460 kts | 200° |
| 2026-05-05 12:56 | -26.92380 | 28.94990 | 27820 ft | 461 kts | 201° |
| 2026-05-05 12:57 | -26.95510 | 28.94166 | 28240 ft | 462 kts | 201° |
| 2026-05-05 12:57 | -26.98647 | 28.93338 | 28579 ft | 465 kts | 201° |
| 2026-05-05 12:57 | -27.01811 | 28.92500 | 28883 ft | 468 kts | 201° |
| 2026-05-05 12:57 | -27.04986 | 28.91660 | 29211 ft | 471 kts | 201° |
| 2026-05-05 12:58 | -27.08147 | 28.90823 | 29526 ft | 473 kts | 201° |
| 2026-05-05 12:58 | -27.10315 | 28.90249 | 29755 ft | 475 kts | 201° |
| 2026-05-05 12:58 | -27.14593 | 28.89115 | 30154 ft | 478 kts | 201° |
| 2026-05-05 12:58 | -27.17839 | 28.88255 | 30425 ft | 480 kts | 201° |
| 2026-05-05 12:59 | -27.21105 | 28.87388 | 30673 ft | 484 kts | 202° |
| 2026-05-05 12:59 | -27.24396 | 28.86513 | 30859 ft | 488 kts | 202° |
| 2026-05-05 12:59 | -27.26592 | 28.85930 | 31017 ft | 489 kts | 202° |
| 2026-05-05 13:00 | -27.33230 | 28.84170 | 31686 ft | 489 kts | 202° |
| 2026-05-05 13:00 | -27.36563 | 28.83371 | 32040 ft | 494 kts | 197° |
| 2026-05-05 13:01 | -27.47136 | 28.83714 | 32984 ft | 515 kts | 181° |
| 2026-05-05 13:01 | -27.50704 | 28.84171 | 33178 ft | 518 kts | 181° |
| 2026-05-05 13:01 | -27.54303 | 28.84625 | 33415 ft | 520 kts | 181° |
| 2026-05-05 13:01 | -27.57898 | 28.85058 | 33758 ft | 518 kts | 182° |
| 2026-05-05 13:02 | -27.61483 | 28.85469 | 34076 ft | 517 kts | 182° |
| 2026-05-05 13:02 | -27.65015 | 28.85860 | 34340 ft | 517 kts | 182° |
| 2026-05-05 13:02 | -27.68595 | 28.86248 | 34572 ft | 517 kts | 183° |
| 2026-05-05 13:02 | -27.72174 | 28.86635 | 34831 ft | 517 kts | 183° |
| 2026-05-05 13:03 | -27.75762 | 28.87024 | 35126 ft | 516 kts | 182° |
| 2026-05-05 13:03 | -27.79333 | 28.87415 | 35440 ft | 515 kts | 183° |
| 2026-05-05 13:03 | -27.82895 | 28.87806 | 35742 ft | 513 kts | 183° |
| 2026-05-05 13:03 | -27.86449 | 28.88197 | 35958 ft | 514 kts | 183° |
| 2026-05-05 13:04 | -27.93623 | 28.88981 | 35945 ft | 519 kts | 183° |
| 2026-05-05 13:04 | -27.97195 | 28.89184 | 35925 ft | 508 kts | 191° |
| 2026-05-05 13:04 | -28.00540 | 28.88865 | 35927 ft | 492 kts | 201° |
| 2026-05-05 13:05 | -28.07210 | 28.87327 | 35940 ft | 489 kts | 203° |
| 2026-05-05 13:05 | -28.13874 | 28.85731 | 35927 ft | 491 kts | 202° |
| 2026-05-05 13:06 | -28.20579 | 28.84178 | 35926 ft | 492 kts | 202° |
| 2026-05-05 13:06 | -28.27265 | 28.82664 | 35957 ft | 494 kts | 201° |
| 2026-05-05 13:07 | -28.34024 | 28.81140 | 35924 ft | 495 kts | 201° |
| 2026-05-05 13:07 | -28.40786 | 28.79614 | 35917 ft | 495 kts | 201° |
| 2026-05-05 13:08 | -28.47551 | 28.78082 | 35915 ft | 495 kts | 201° |
| 2026-05-05 13:08 | -28.54297 | 28.76553 | 35948 ft | 493 kts | 201° |
| 2026-05-05 13:09 | -28.61032 | 28.75022 | 35938 ft | 492 kts | 201° |
| 2026-05-05 13:09 | -28.67710 | 28.73502 | 35925 ft | 492 kts | 201° |
| 2026-05-05 13:10 | -28.74405 | 28.71975 | 35948 ft | 490 kts | 201° |
| 2026-05-05 13:10 | -28.81092 | 28.70453 | 35972 ft | 490 kts | 201° |
| 2026-05-05 13:11 | -28.87793 | 28.68921 | 35971 ft | 490 kts | 201° |
| 2026-05-05 13:11 | -28.94479 | 28.67389 | 35952 ft | 490 kts | 201° |
| 2026-05-05 13:12 | -29.01169 | 28.65855 | 35980 ft | 492 kts | 201° |
| 2026-05-05 13:12 | -29.07902 | 28.64309 | 35968 ft | 493 kts | 202° |
| 2026-05-05 13:13 | -29.14652 | 28.62761 | 35944 ft | 495 kts | 202° |
| 2026-05-05 13:13 | -29.21373 | 28.61216 | 35959 ft | 497 kts | 202° |
| 2026-05-05 13:14 | -29.28170 | 28.59650 | 35959 ft | 499 kts | 202° |
| 2026-05-05 13:14 | -29.35001 | 28.58075 | 35965 ft | 502 kts | 202° |
| 2026-05-05 13:15 | -29.41877 | 28.56487 | 35955 ft | 505 kts | 202° |
| 2026-05-05 13:15 | -29.48795 | 28.54886 | 35935 ft | 507 kts | 202° |
| 2026-05-05 13:16 | -29.55718 | 28.53285 | 35910 ft | 507 kts | 202° |
| 2026-05-05 13:16 | -29.62591 | 28.51692 | 35936 ft | 507 kts | 202° |
| 2026-05-05 13:17 | -29.69502 | 28.50087 | 35932 ft | 505 kts | 202° |
| 2026-05-05 13:17 | -29.76387 | 28.48486 | 35903 ft | 503 kts | 202° |
| 2026-05-05 13:18 | -29.83227 | 28.46898 | 35914 ft | 501 kts | 202° |
| 2026-05-05 13:18 | -29.90067 | 28.45305 | 35913 ft | 500 kts | 202° |
| 2026-05-05 13:19 | -29.96822 | 28.43727 | 35920 ft | 496 kts | 202° |
| 2026-05-05 13:19 | -30.03593 | 28.42143 | 35884 ft | 496 kts | 202° |
| 2026-05-05 13:20 | -30.10346 | 28.40564 | 35883 ft | 493 kts | 202° |
| 2026-05-05 13:20 | -30.17122 | 28.38955 | 35885 ft | 503 kts | 201° |
| 2026-05-05 13:21 | -30.23988 | 28.37337 | 35863 ft | 509 kts | 202° |
| 2026-05-05 13:21 | -30.30920 | 28.35730 | 35883 ft | 505 kts | 201° |
| 2026-05-05 13:22 | -30.37748 | 28.34137 | 35913 ft | 500 kts | 202° |
| 2026-05-05 13:22 | -30.44526 | 28.32528 | 35882 ft | 494 kts | 202° |
| 2026-05-05 13:23 | -30.51283 | 28.30921 | 35899 ft | 498 kts | 202° |
| 2026-05-05 13:23 | -30.58133 | 28.29284 | 35905 ft | 506 kts | 202° |
| 2026-05-05 13:24 | -30.65055 | 28.27635 | 35675 ft | 512 kts | 201° |
| 2026-05-05 13:24 | -30.68543 | 28.26803 | 35334 ft | 511 kts | 201° |
| 2026-05-05 13:24 | -30.72024 | 28.25974 | 34924 ft | 507 kts | 201° |
| 2026-05-05 13:25 | -30.75443 | 28.25165 | 34823 ft | 496 kts | 201° |
| 2026-05-05 13:25 | -30.78793 | 28.24370 | 34642 ft | 487 kts | 201° |
| 2026-05-05 13:25 | -30.82062 | 28.23585 | 34246 ft | 485 kts | 201° |
| 2026-05-05 13:25 | -30.85366 | 28.22785 | 33701 ft | 484 kts | 201° |
| 2026-05-05 13:26 | -30.88651 | 28.21995 | 33114 ft | 479 kts | 201° |
| 2026-05-05 13:26 | -30.91891 | 28.21220 | 32553 ft | 473 kts | 201° |
| 2026-05-05 13:26 | -30.95099 | 28.20458 | 32008 ft | 468 kts | 200° |
| 2026-05-05 13:26 | -30.98267 | 28.19706 | 31446 ft | 462 kts | 200° |
| 2026-05-05 13:27 | -31.01390 | 28.18963 | 30909 ft | 457 kts | 200° |
| 2026-05-05 13:27 | -31.04502 | 28.18221 | 30370 ft | 454 kts | 200° |
| 2026-05-05 13:27 | -31.07585 | 28.17485 | 29828 ft | 449 kts | 200° |
| 2026-05-05 13:27 | -31.10627 | 28.16757 | 29214 ft | 444 kts | 200° |
| 2026-05-05 13:28 | -31.13639 | 28.16035 | 28609 ft | 440 kts | 200° |
| 2026-05-05 13:28 | -31.16622 | 28.15319 | 27986 ft | 436 kts | 200° |
| 2026-05-05 13:28 | -31.19580 | 28.14608 | 27357 ft | 432 kts | 199° |
| 2026-05-05 13:28 | -31.22516 | 28.13902 | 26774 ft | 429 kts | 198° |
| 2026-05-05 13:29 | -31.25431 | 28.13206 | 26238 ft | 424 kts | 199° |
| 2026-05-05 13:29 | -31.28312 | 28.12515 | 25678 ft | 421 kts | 199° |
| 2026-05-05 13:29 | -31.31159 | 28.11830 | 25234 ft | 414 kts | 199° |
| 2026-05-05 13:29 | -31.33953 | 28.11155 | 24955 ft | 407 kts | 199° |
| 2026-05-05 13:30 | -31.36689 | 28.10489 | 24596 ft | 407 kts | 199° |
| 2026-05-05 13:30 | -31.39493 | 28.09805 | 24217 ft | 406 kts | 199° |
| 2026-05-05 13:30 | -31.42220 | 28.09140 | 23867 ft | 405 kts | 198° |
| 2026-05-05 13:30 | -31.44976 | 28.08468 | 23502 ft | 405 kts | 198° |
| 2026-05-05 13:31 | -31.47731 | 28.07796 | 23075 ft | 405 kts | 199° |
| 2026-05-05 13:31 | -31.50488 | 28.07126 | 22712 ft | 403 kts | 199° |
| 2026-05-05 13:31 | -31.53233 | 28.06460 | 22357 ft | 402 kts | 198° |
| 2026-05-05 13:31 | -31.55973 | 28.05798 | 22035 ft | 400 kts | 198° |
| 2026-05-05 13:32 | -31.58693 | 28.05141 | 21659 ft | 399 kts | 198° |
| 2026-05-05 13:32 | -31.61409 | 28.04485 | 21273 ft | 398 kts | 198° |
| 2026-05-05 13:32 | -31.64122 | 28.03828 | 20926 ft | 395 kts | 198° |
| 2026-05-05 13:32 | -31.66806 | 28.03178 | 20573 ft | 393 kts | 198° |
| 2026-05-05 13:33 | -31.69446 | 28.02538 | 20233 ft | 391 kts | 198° |
| 2026-05-05 13:33 | -31.72130 | 28.01888 | 19873 ft | 388 kts | 198° |
| 2026-05-05 13:33 | -31.74771 | 28.01248 | 19513 ft | 387 kts | 198° |
| 2026-05-05 13:33 | -31.77377 | 28.00613 | 19158 ft | 388 kts | 198° |
| 2026-05-05 13:34 | -31.79978 | 27.99976 | 18771 ft | 392 kts | 198° |
| 2026-05-05 13:34 | -31.82611 | 27.99333 | 18441 ft | 391 kts | 198° |
| 2026-05-05 13:34 | -31.85273 | 27.98687 | 18067 ft | 389 kts | 198° |
| 2026-05-05 13:34 | -31.87918 | 27.98046 | 17673 ft | 386 kts | 198° |
| 2026-05-05 13:35 | -31.90534 | 27.97410 | 17306 ft | 383 kts | 198° |
| 2026-05-05 13:35 | -31.93137 | 27.96776 | 16943 ft | 380 kts | 198° |
| 2026-05-05 13:35 | -31.95719 | 27.96146 | 16595 ft | 377 kts | 198° |
| 2026-05-05 13:35 | -31.98242 | 27.95530 | 16254 ft | 374 kts | 198° |
| 2026-05-05 13:36 | -32.00767 | 27.94914 | 15901 ft | 367 kts | 198° |
| 2026-05-05 13:36 | -32.03233 | 27.94314 | 15558 ft | 358 kts | 198° |
| 2026-05-05 13:36 | -32.05644 | 27.93726 | 15223 ft | 349 kts | 198° |
| 2026-05-05 13:36 | -32.07991 | 27.93152 | 14919 ft | 340 kts | 198° |
| 2026-05-05 13:37 | -32.10282 | 27.92589 | 14620 ft | 334 kts | 198° |
| 2026-05-05 13:37 | -32.12554 | 27.92029 | 14301 ft | 333 kts | 198° |
| 2026-05-05 13:37 | -32.14820 | 27.91471 | 13998 ft | 331 kts | 198° |
| 2026-05-05 13:37 | -32.17076 | 27.90917 | 13692 ft | 330 kts | 198° |
| 2026-05-05 13:38 | -32.19323 | 27.90369 | 13356 ft | 331 kts | 197° |
| 2026-05-05 13:38 | -32.21654 | 27.90205 | 13032 ft | 342 kts | 178° |
| 2026-05-05 13:38 | -32.24006 | 27.90584 | 12806 ft | 340 kts | 174° |
| 2026-05-05 13:38 | -32.26336 | 27.91010 | 12550 ft | 337 kts | 174° |
| 2026-05-05 13:39 | -32.28648 | 27.91436 | 12276 ft | 335 kts | 173° |
| 2026-05-05 13:39 | -32.30912 | 27.91848 | 12023 ft | 331 kts | 173° |
| 2026-05-05 13:39 | -32.33174 | 27.92252 | 11802 ft | 327 kts | 173° |
| 2026-05-05 13:39 | -32.35423 | 27.92647 | 11491 ft | 325 kts | 173° |
| 2026-05-05 13:40 | -32.37655 | 27.93035 | 11194 ft | 324 kts | 173° |
| 2026-05-05 13:40 | -32.39882 | 27.93420 | 10878 ft | 323 kts | 173° |
| 2026-05-05 13:40 | -32.42103 | 27.93801 | 10569 ft | 322 kts | 173° |
| 2026-05-05 13:40 | -32.44312 | 27.94181 | 10266 ft | 321 kts | 172° |
| 2026-05-05 13:41 | -32.46512 | 27.94554 | 10087 ft | 316 kts | 172° |
| 2026-05-05 13:41 | -32.48666 | 27.94924 | 9939 ft | 309 kts | 171° |
| 2026-05-05 13:41 | -32.50767 | 27.95286 | 9877 ft | 299 kts | 171° |
| 2026-05-05 13:41 | -32.52801 | 27.95636 | 9535 ft | 296 kts | 171° |
| 2026-05-05 13:42 | -32.54837 | 27.95986 | 9172 ft | 291 kts | 171° |
| 2026-05-05 13:42 | -32.56825 | 27.96328 | 8851 ft | 286 kts | 170° |
| 2026-05-05 13:42 | -32.58770 | 27.96662 | 8566 ft | 279 kts | 170° |
| 2026-05-05 13:42 | -32.60650 | 27.96985 | 8305 ft | 275 kts | 170° |
| 2026-05-05 13:43 | -32.62502 | 27.97302 | 8236 ft | 261 kts | 170° |
| 2026-05-05 13:43 | -32.64244 | 27.97601 | 8119 ft | 245 kts | 170° |
| 2026-05-05 13:43 | -32.65878 | 27.97881 | 7971 ft | 228 kts | 170° |
| 2026-05-05 13:43 | -32.67436 | 27.98150 | 7484 ft | 230 kts | 169° |
| 2026-05-05 13:44 | -32.68987 | 27.98417 | 7217 ft | 221 kts | 169° |
| 2026-05-05 13:44 | -32.70473 | 27.98674 | 7061 ft | 211 kts | 169° |
| 2026-05-05 13:44 | -32.71912 | 27.98922 | 6886 ft | 208 kts | 169° |
| 2026-05-05 13:44 | -32.73339 | 27.99168 | 6696 ft | 208 kts | 169° |
| 2026-05-05 13:45 | -32.74781 | 27.99418 | 6502 ft | 210 kts | 169° |
| 2026-05-05 13:45 | -32.76236 | 27.99664 | 6288 ft | 212 kts | 169° |
| 2026-05-05 13:45 | -32.77689 | 27.99915 | 6077 ft | 210 kts | 169° |
| 2026-05-05 13:45 | -32.79131 | 28.00170 | 5859 ft | 208 kts | 168° |
| 2026-05-05 13:46 | -32.80540 | 28.00414 | 5655 ft | 202 kts | 169° |
| 2026-05-05 13:46 | -32.81898 | 28.00648 | 5461 ft | 197 kts | 169° |
| 2026-05-05 13:46 | -32.83245 | 28.00881 | 5269 ft | 195 kts | 169° |
| 2026-05-05 13:46 | -32.84580 | 28.01112 | 5073 ft | 194 kts | 169° |
| 2026-05-05 13:47 | -32.85909 | 28.01342 | 4867 ft | 192 kts | 169° |
| 2026-05-05 13:47 | -32.86796 | 28.01495 | 4748 ft | 190 kts | 169° |
| 2026-05-05 13:47 | -32.88070 | 28.01715 | 4521 ft | 185 kts | 169° |
| 2026-05-05 13:47 | -32.89320 | 28.01932 | 4315 ft | 179 kts | 169° |
| 2026-05-05 13:48 | -32.90541 | 28.02142 | 4143 ft | 176 kts | 169° |
| 2026-05-05 13:48 | -32.91754 | 28.02353 | 4019 ft | 175 kts | 169° |
| 2026-05-05 13:48 | -32.92959 | 28.02563 | 3927 ft | 176 kts | 169° |
| 2026-05-05 13:48 | -32.94183 | 28.02777 | 3870 ft | 180 kts | 169° |
| 2026-05-05 13:49 | -32.95422 | 28.02993 | 3793 ft | 180 kts | 169° |
| 2026-05-05 13:49 | -32.96657 | 28.03206 | 3711 ft | 179 kts | 169° |
| 2026-05-05 13:49 | -32.97885 | 28.03415 | 3623 ft | 175 kts | 170° |
| 2026-05-05 13:49 | -32.99078 | 28.03457 | 3515 ft | 174 kts | 192° |
| 2026-05-05 13:50 | -33.00158 | 28.02807 | 3371 ft | 175 kts | 212° |
| 2026-05-05 13:50 | -33.00963 | 28.01742 | 3194 ft | 178 kts | 238° |
| 2026-05-05 13:50 | -33.01351 | 28.00320 | 3123 ft | 179 kts | 254° |
| 2026-05-05 13:50 | -33.01612 | 27.98916 | 3018 ft | 169 kts | 258° |
| 2026-05-05 13:51 | -33.01790 | 27.97528 | 2781 ft | 170 kts | 260° |
| 2026-05-05 13:51 | -33.01950 | 27.96161 | 2548 ft | 163 kts | 261° |
| 2026-05-05 13:51 | -33.02102 | 27.94856 | 2341 ft | 157 kts | 261° |
| 2026-05-05 13:51 | -33.02254 | 27.93567 | 2147 ft | 158 kts | 261° |
| 2026-05-05 13:52 | -33.02406 | 27.92281 | 1940 ft | 155 kts | 261° |
| 2026-05-05 13:52 | -33.02557 | 27.91007 | 1736 ft | 155 kts | 261° |
| 2026-05-05 13:52 | -33.02706 | 27.89733 | 1518 ft | 154 kts | 262° |
| 2026-05-05 13:52 | -33.02862 | 27.88484 | 1314 ft | 156 kts | 261° |
| 2026-05-05 13:53 | -33.03020 | 27.87242 | 1168 ft | 150 kts | 263° |
| 2026-05-05 13:53 | -33.03149 | 27.86005 | 924 ft | 148 kts | 263° |
| 2026-05-05 13:53 | -33.03282 | 27.84825 | 731 ft | 142 kts | 262° |
| 2026-05-05 13:53 | -33.03424 | 27.83663 | 510 ft | 139 kts | 263° |
| 2026-05-05 13:54 | -33.03557 | 27.82568 | 416 ft | 123 kts | 262° |
| 2026-05-05 13:54 | -33.03644 | 27.81817 | 421 ft | 53 kts | 261° |
| 2026-05-05 13:54 | -33.03677 | 27.81558 | 421 ft | 29 kts | 262° |
| 2026-05-05 13:54 | -33.03702 | 27.81335 | 423 ft | 24 kts | 262° |
| 2026-05-05 13:55 | -33.03761 | 27.81214 | 423 ft | 16 kts | 189° |
| 2026-05-05 13:55 | -33.03863 | 27.81247 | 423 ft | 15 kts | 141° |
| 2026-05-05 13:55 | -33.03867 | 27.81363 | 416 ft | 14 kts | 83° |
| 2026-05-05 13:55 | -33.03855 | 27.81479 | 422 ft | 14 kts | 83° |
| 2026-05-05 13:56 | -33.03839 | 27.81589 | 411 ft | 13 kts | 81° |
| 2026-05-05 13:56 | -33.03827 | 27.81696 | 416 ft | 13 kts | 82° |
| 2026-05-05 13:56 | -33.03813 | 27.81799 | 412 ft | 12 kts | 81° |
| 2026-05-05 13:56 | -33.03806 | 27.81867 | 419 ft | 12 kts | 83° |
| 2026-05-05 13:57 | -33.03796 | 27.81965 | 410 ft | 12 kts | 82° |
| 2026-05-05 13:57 | -33.03784 | 27.82060 | 417 ft | 11 kts | 81° |
| 2026-05-05 13:57 | -33.03773 | 27.82155 | 416 ft | 12 kts | 82° |
| 2026-05-05 13:57 | -33.03761 | 27.82248 | 415 ft | 11 kts | 80° |
| 2026-05-05 13:58 | -33.03749 | 27.82339 | 415 ft | 11 kts | 82° |
| 2026-05-05 13:58 | -33.03739 | 27.82428 | 407 ft | 11 kts | 82° |
| 2026-05-05 13:58 | -33.03728 | 27.82511 | 410 ft | 10 kts | 81° |
| 2026-05-05 13:58 | -33.03716 | 27.82594 | 415 ft | 10 kts | 80° |
| 2026-05-05 13:59 | -33.03703 | 27.82728 | 415 ft | 2 kts | 84° |
| 2026-05-05 13:59 | -33.03704 | 27.82743 | 415 ft | 2 kts | 103° |
| 2026-05-05 14:00 | -33.03722 | 27.82761 | 415 ft | 3 kts | 153° |
| 2026-05-05 14:00 | -33.03741 | 27.82768 | 415 ft | 2 kts | 167° |
| 2026-05-05 14:00 | -33.03749 | 27.82770 | 415 ft | 0 kts | 168° |